Terminal Aerodrome Forecast
Issued by NWS

Home | Current Version | Previous Version | Graphics & Text | Print | Product List | Glossary On
Versions: 1 2 3 4 5 6 7 8 9 10 11 12
000
FTUS42 KMHX 220500 RRA
TAFISO
TAF
KISO 220547Z 2206/2306 00000KT P6SM SKC
     FM220830 00000KT 5SM BR BKN200
     FM221030 00000KT P6SM BKN150
     FM221400 24008KT P6SM BKN150
     FM222000 25010KT P6SM VCSH BKN080
     FM230200 28004KT P6SM SKC
      AMD LTD TO CLD VIS AND WIND=

USA.gov is the U.S. government's official web portal to all federal, state and local government web resources and services.